EST,Max TemperatureF,Mean TemperatureF,Min TemperatureF,Max Dew PointF,MeanDew PointF,Min DewpointF,Max Humidity, Mean Humidity, Min Humidity, Max Sea Level PressureIn, Mean Sea Level PressureIn, Min Sea Level PressureIn, Max VisibilityMiles, Mean VisibilityMiles, Min VisibilityMiles, Max Wind SpeedMPH, Mean Wind SpeedMPH, Max Gust SpeedMPH,PrecipitationIn, CloudCover, Events, WindDirDegrees
2011-12-1,39,32,24,29,25,21,92,78,64,30.36,30.30,30.24,10,8,3,13,4,,0.00,0,,197
2011-12-2,39,36,32,32,30,26,89,82,75,30.49,30.41,30.28,10,8,4,20,6,,0.00,4,,118
2011-12-3,53,44,34,37,33,30,89,71,52,30.44,30.32,30.13,10,10,7,18,9,28,0.00,2,,172
2011-12-4,51,46,41,47,41,29,96,69,41,30.20,30.13,30.06,10,8,4,25,14,36,0.66,8,Rain,219
2011-12-5,42,38,33,39,36,30,93,88,82,30.21,30.16,30.10,10,6,2,23,12,29,0.76,8,Rain-Snow,25
2011-12-6,33,32,31,30,29,27,92,85,78,30.21,30.16,30.12,10,9,3,18,11,24,0.00,8,,23
2011-12-7,35,32,28,28,24,21,92,78,63,30.13,30.06,30.00,10,10,4,18,9,75,T,5,Snow,312
2011-12-8,37,31,24,25,22,19,81,68,54,30.28,30.22,30.14,10,10,10,37,6,75,0.00,5,,223
2011-12-9,34,28,21,30,26,14,85,77,69,30.43,30.27,30.19,10,7,2,15,6,20,T,7,Snow,297
2011-12-10,27,21,15,12,9,7,74,58,42,30.58,30.52,30.44,10,10,10,13,6,20,0.00,0,,257
2011-12-11,38,29,19,17,13,8,62,51,40,30.58,30.51,30.46,10,10,2,12,6,17,0.00,0,,190
2011-12-12,44,33,21,24,17,14,85,58,31,30.48,30.44,30.41,10,10,10,8,2,14,0.00,1,,186
2011-12-13,42,36,29,39,32,24,86,75,64,30.47,30.40,30.31,10,8,2,9,4,24,0.03,7,Rain,187
2011-12-14,57,49,41,52,45,39,96,87,77,30.30,30.14,29.87,10,6,2,24,10,31,0.74,8,Rain,196
2011-12-15,60,47,33,55,43,24,93,81,69,30.21,29.89,29.75,10,8,2,33,19,44,0.42,8,Rain-Snow,256
2011-12-16,36,33,29,27,24,21,85,74,63,30.38,30.30,30.22,10,10,10,23,7,31,T,4,,300
2011-12-17,34,31,28,28,24,21,85,74,63,30.33,30.27,30.21,10,9,2,13,5,17,T,8,Snow,247
2011-12-18,44,37,29,31,28,26,92,73,53,30.28,30.21,30.07,10,7,4,15,8,22,0.00,3,,225
2011-12-19,49,44,39,42,35,31,92,77,61,30.12,30.04,30.00,10,9,4,21,10,31,0.13,7,Rain,224
2011-12-20,47,42,36,45,39,34,92,89,85,30.14,29.99,29.82,10,5,2,13,8,16,0.51,8,Rain,114
2011-12-21,55,48,41,52,46,37,100,91,82,29.98,29.75,29.65,10,8,1,24,9,31,0.55,7,Rain,245
2011-12-22,44,41,37,38,36,34,86,78,70,30.11,30.05,29.98,10,9,6,9,4,12,0.00,7,,283
2011-12-23,39,35,30,36,26,20,92,72,52,30.35,30.25,30.12,10,9,5,18,9,22,0.00,6,,327
2011-12-24,40,33,26,25,24,22,85,70,54,30.41,30.34,30.28,10,10,8,17,8,25,0.00,1,,225
2011-12-25,46,38,30,29,26,24,78,62,45,30.32,30.20,30.09,10,10,10,25,12,33,0.00,1,,246
2011-12-26,45,35,25,28,26,23,85,67,49,30.37,30.22,29.96,10,10,10,16,6,22,0.00,0,,205
2011-12-27,37,35,32,32,30,26,92,78,64,29.92,29.64,29.50,10,4,0,26,10,32,0.45,8,Rain-Snow,259
2011-12-28,33,29,25,26,21,19,78,74,69,30.07,30.01,29.88,10,10,10,24,8,33,0.00,6,,289
2011-12-29,49,41,32,35,31,25,82,69,56,29.94,29.76,29.61,10,10,10,23,11,32,T,3,,210
2011-12-30,49,44,39,44,38,33,92,81,70,29.78,29.67,29.49,10,9,3,26,11,35,0.25,7,Rain,223
2011-12-31,40,39,37,38,35,33,92,86,79,30.07,29.94,29.71,10,8,2,21,10,29,0.00,7,,246